Dundee, United Kingdom

5:55 AM GMT on February 07, 2016 (GMT +0000)
West End | | Change Station
CLOSE
Current Station
Personal Weather Station
Location: Dundee,
Elevation: 187 ft
Nearby Weather Stations

Elev 187 ft 56.46 °N, 3.02 °W | Updated 0 second ago

Clear
Clear
41.1 °F
Feels Like 36 °F
N
7.0
Wind Variable Wind from South
Gusts 12.0 mph

Today
High -- | Low -- °F
--% Chance of Precip.
Yesterday
High -- | Low -- °F
Precip. -- in
Pressure 28.82 in
Visibility 6.2 miles
Clouds
Windchill 36 °F
Dew Point 36 °F
Humidity 82%
Rainfall 0.00 in
Snow Depth Not available.
7:57 AM 4:55 PM
Waning Crescent, 2% visible
METAR EGPH 070550Z AUTO 20014KT 9999 NCD 04/00 Q0976
Pressure 28.82 in
Visibility 6.2 miles
Clouds
Windchill 36 °F
Dew Point 36 °F
Humidity 82%
Rainfall 0.00 in
Snow Depth Not available.
7:57 AM 4:55 PM
Waning Crescent, 2% visible
METAR EGPH 070550Z AUTO 20014KT 9999 NCD 04/00 Q0976

10-Day Weather Forecast

Almanac

Astronomy

Feb. 07, 2016 Rise Set
Actual Time
Civil Twilight
Nautical Twilight
Astronomical Twilight
Moon
Length of Visible Light
Length of Day
Tomorrow will be .
, % of the Moon is Illuminated

Today's Extremes

Country Highs Country Lows

Community

WunderPhotos

Upload Photos

1,891,167 photos uploaded!

WunderBlog® & News

Nearby

Air Quality

  Air Quality AQ Index Pollutant
Not available.

Snow Depth

Station Depth Elevation

Earthquake Activity

City Distance Mag. Time & Date
Minimum magnitude displayed is 2.5.

Coastal Water Temperatures

Place Temperature

Stations

Nearby Weather Stations

Station Location Temp. Windchill Dew Point Humidity Wind Precip. Elev Updated Type